Holmdel Village, New Jersey
Current Conditions -  °F | °C
As of 1:35 AM on Tuesday 21 Oct 2014 (Local Time) from KBLM Reporting Station
Clear Clear  
Wind Chill: 12°   Ceiling: Unl
Heat Index: 12°   Visibility: 10mi
Dew Point:   Wind: 5mph
Humidity: 67%   Direction: 200°SSW
Pressure: 29.94"   Gusts: NA
Location:  40.3764°N, 74.1727°W
Report Text: KBLM 210535Z AUTO 20004KT 10SM CLR 12/06 A2994 RMK AO1
Loading
Personal Weather Stations






























Interactive Weather Map
Tropical Storm Tracking
New forecast layout! Learn more

10-Day Weather Forecast

Advertisements
Track Severe Weather on mobile